Latest Weather Observations for Bridgetown

IDW60801

Issued at 9:35 pm WST Friday 22 August 2014 (issued every 30 minutes, with the page automatically refreshed every 10 minutes)

About weather observations | Map of weather stations | Latest weather observations for WA | Other Formats
Station Details ID: 009617 Name: BRIDGETOWN Lat: -33.95 Lon: 116.13 Height: 178.66 m
Data from the previous 72 hours. | See also: Recent months at Bridgetown
Date/Time
WST
Temp
°C
App
Temp
°C
Dew
Point
Rel
Hum
%
Delta-T
°C
Wind Press
QNH
hPa
Press
MSL
hPa
Rain
since 9 am
mm
Dir
 
Spd
km/h
Gust
km/h
Spd
kts
Gust
kts
22/09:30pm 6.2 5.3 6.1 99 0.0 NE 0 0 0 0 1024.6 1024.8 0.0
22/09:00pm 6.8 6.0 6.7 99 0.0 N 0 0 0 0 1024.5 1024.7 0.0
22/08:30pm 7.4 6.8 7.3 99 0.0 CALM 0 0 0 0 1024.3 1024.5 0.0
22/08:00pm 8.1 7.6 8.0 99 0.0 CALM 0 0 0 0 1023.9 1024.1 0.0
22/07:30pm 9.0 8.0 8.7 98 0.1 N 4 7 2 4 1023.7 1023.9 0.0
22/07:00pm 10.2 10.2 9.7 97 0.3 CALM 0 0 0 0 1023.1 1023.3 0.0
22/06:30pm 11.0 10.6 9.6 91 0.7 NW 2 4 1 2 1022.9 1023.1 0.0
22/06:00pm 11.9 11.1 9.8 87 1.1 NNW 4 6 2 3 1022.6 1022.7 0.0
22/05:30pm 12.8 11.8 7.5 70 2.6 NW 2 4 1 2 1022.3 1022.4 0.0
22/05:00pm 14.9 13.6 6.0 55 4.3 WNW 2 7 1 4 1021.9 1022.0 0.0
22/04:30pm 16.5 15.5 5.5 48 5.3 CALM 0 0 0 0 1021.7 1021.8 0.0
22/04:00pm 16.2 14.7 4.9 47 5.4 N 2 6 1 3 1021.6 1021.7 0.0
22/03:30pm 15.4 13.1 5.0 50 4.9 NNW 6 7 3 4 1021.5 1021.6 0.0
22/03:00pm 16.5 14.8 5.8 49 5.2 NNE 4 11 2 6 1021.3 1021.4 0.0
22/02:30pm 16.6 14.5 5.9 49 5.2 SSW 6 11 3 6 1021.1 1021.2 0.0
22/02:00pm 16.2 14.1 5.8 50 5.0 S 6 11 3 6 1021.0 1021.1 0.0
22/01:30pm 15.2 13.1 6.0 54 4.5 WSW 6 9 3 5 1020.9 1021.0 0.0
22/01:00pm 15.7 12.6 3.8 45 5.5 WNW 9 17 5 9 1021.1 1021.2 0.0
22/12:30pm 15.8 13.7 5.7 51 4.9 W 6 13 3 7 1021.2 1021.3 0.0
22/12:00pm 14.9 13.2 6.0 55 4.3 WSW 4 11 2 6 1021.5 1021.6 0.0
22/11:30am 14.6 12.6 6.9 60 3.8 SW 7 13 4 7 1021.5 1021.6 0.0
22/11:00am 14.7 12.7 7.3 61 3.7 WSW 7 15 4 8 1021.7 1021.8 0.0
22/10:30am 14.9 13.4 9.1 68 3.0 WSW 7 15 4 8 1021.7 1021.8 0.0
22/10:00am 14.1 12.7 8.9 71 2.6 SW 6 11 3 6 1021.4 1021.5 0.0
22/09:30am 12.8 12.3 7.9 72 2.4 CALM 0 6 0 3 1021.2 1021.3 0.0
22/09:00am 11.7 10.3 9.4 86 1.2 N 7 9 4 5 1021.1 1021.2 3.0
22/08:30am 10.4 9.7 10.2 99 0.1 N 4 6 2 3 1020.7 1020.8 3.0
22/08:00am 7.6 5.7 7.6 100 0.0 NNW 7 9 4 5 1020.1 1020.3 3.0
22/07:30am 6.4 5.6 6.4 100 0.0 CALM 0 0 0 0 1019.8 1020.0 3.0
22/07:00am 5.8 4.8 5.7 99 0.0 CALM 0 0 0 0 1018.7 1018.9 3.0
22/06:30am 7.0 6.3 6.9 99 0.0 CALM 0 2 0 1 1018.4 1018.6 3.0
22/06:00am 6.9 6.2 6.8 99 0.0 CALM 0 0 0 0 1018.1 1018.3 3.0
22/05:30am 7.8 6.1 7.7 99 0.0 NNW 6 7 3 4 1017.6 1017.7 3.0
22/05:00am 8.1 7.6 8.0 99 0.0 CALM 0 0 0 0 1017.3 1017.4 3.0
22/04:30am 8.6 7.5 8.5 99 0.0 NNW 4 7 2 4 1016.7 1016.8 3.0
22/04:00am 9.0 7.6 8.9 99 0.0 NNW 6 11 3 6 1016.2 1016.3 3.0
22/03:30am 8.6 7.1 8.5 99 0.0 NNW 6 7 3 4 1015.6 1015.7 3.0
22/03:00am 9.7 8.9 9.6 99 0.1 NNW 4 7 2 4 1015.4 1015.5 3.0
22/02:30am 10.3 9.6 10.1 99 0.1 NNW 4 7 2 4 1015.4 1015.5 3.0
22/02:00am 10.4 9.7 10.1 98 0.2 NNW 4 9 2 5 1015.1 1015.2 2.8
22/01:30am 10.9 9.4 10.6 98 0.2 NW 9 20 5 11 1014.9 1015.0 2.6
22/01:00am 10.9 10.0 10.6 98 0.2 NW 6 11 3 6 1014.3 1014.5 2.0
22/12:30am 10.4 9.7 10.1 98 0.2 NNW 4 9 2 5 1013.7 1013.9 2.0
22/12:00am 11.2 9.2 10.3 94 0.5 WNW 11 19 6 10 1013.5 1013.7 2.0
 
Date/Time
WST
Temp
°C
App
Temp
°C
Dew
Point
Rel
Hum
%
Delta-T
°C
Wind Press
QNH
hPa
Press
MSL
hPa
Rain
since 9 am
mm
Dir
 
Spd
km/h
Gust
km/h
Spd
kts
Gust
kts
21/11:30pm 11.1 10.0 10.0 93 0.6 NNW 6 13 3 7 1013.1 1013.2 1.8
21/11:00pm 10.4 9.7 10.1 98 0.2 NNW 4 9 2 5 1013.0 1013.1 1.8
21/10:30pm 10.7 10.1 10.4 98 0.2 NNW 4 7 2 4 1013.1 1013.2 1.8
21/10:00pm 10.8 10.2 10.5 98 0.2 NNW 4 11 2 6 1013.1 1013.2 1.8
21/09:30pm 10.9 10.4 10.6 98 0.2 NW 4 9 2 5 1012.8 1012.9 1.8
21/09:00pm 11.9 9.9 11.6 98 0.2 NW 13 22 7 12 1013.2 1013.3 1.8
21/08:30pm 11.0 10.5 10.7 98 0.2 N 4 6 2 3 1012.4 1012.5 1.6
21/08:00pm 10.1 9.3 9.8 98 0.2 NNW 4 7 2 4 1012.4 1012.5 1.6
21/07:30pm 10.0 9.2 9.7 98 0.2 NNW 4 6 2 3 1012.1 1012.2 1.6
21/07:00pm 10.4 10.3 9.6 95 0.4 CALM 0 0 0 0 1011.8 1011.9 1.6
21/06:30pm 11.6 10.8 9.5 87 1.1 N 4 6 2 3 1011.6 1011.7 1.6
21/06:00pm 13.0 12.0 8.7 75 2.2 NW 4 13 2 7 1011.3 1011.4 1.6
21/05:30pm 13.8 12.7 8.6 71 2.6 NW 4 11 2 6 1010.8 1010.9 1.6
21/05:00pm 15.2 13.6 8.7 65 3.3 NNW 7 15 4 8 1010.4 1010.5 1.6
21/04:30pm 16.0 13.7 9.0 63 3.6 WNW 11 22 6 12 1010.0 1010.1 1.6
21/04:00pm 16.2 14.1 9.8 66 3.4 W 11 22 6 12 1009.6 1009.7 1.6
21/03:30pm 17.1 14.8 9.0 59 4.2 NW 11 28 6 15 1009.4 1009.5 1.6
21/03:00pm 17.0 14.8 9.4 61 4.0 WNW 11 24 6 13 1009.2 1009.3 1.6
21/02:30pm 17.4 15.1 10.5 64 3.7 NW 13 30 7 16 1009.1 1009.2 1.6
21/02:00pm 17.1 15.8 12.6 75 2.5 WNW 11 24 6 13 1008.8 1009.0 1.6
21/01:30pm 15.9 14.5 12.3 79 2.0 NW 11 22 6 12 1009.1 1009.2 1.6
21/01:00pm 14.6 14.2 14.0 96 0.3 NW 9 19 5 10 1009.0 1009.1 1.6
21/12:30pm 14.5 13.4 14.3 99 0.1 WNW 13 26 7 14 1009.1 1009.2 1.6
21/12:00pm 15.7 15.4 15.4 98 0.2 WNW 11 24 6 13 1008.8 1009.0 0.0
21/11:30am 16.7 13.7 12.0 74 2.6 NNW 19 32 10 17 1008.5 1008.6 0.0
21/11:00am 16.9 13.5 11.4 70 3.0 NNW 20 35 11 19 1008.4 1008.5 0.0
21/10:30am 17.4 15.5 12.9 75 2.5 NNW 15 24 8 13 1008.7 1008.9 0.0
21/10:00am 16.8 14.5 11.9 73 2.7 NNW 15 26 8 14 1008.8 1009.0 0.0
21/09:30am 15.8 14.1 12.4 80 1.9 NW 13 26 7 14 1008.8 1009.0 0.0
21/09:00am 15.4 14.4 12.2 81 1.8 NNW 9 15 5 8 1008.5 1008.6 12.2
21/08:30am 15.2 13.7 13.2 88 1.1 NNW 13 22 7 12 1008.4 1008.5 12.2
21/08:00am 14.5 13.8 14.3 99 0.1 NNW 11 20 6 11 1008.0 1008.1 12.2
21/07:30am 14.3 13.9 14.1 99 0.1 NW 9 19 5 10 1007.4 1007.5 12.2
21/07:00am 14.5 13.9 14.5 100 0.0 NW 11 20 6 11 1006.6 1006.7 12.2
21/06:30am 15.1 14.7 15.1 100 0.0 WNW 11 22 6 12 1006.3 1006.4 12.2
21/06:00am 15.6 15.4 15.6 100 0.0 NNW 11 20 6 11 1005.4 1005.5 11.8
21/05:30am 15.4 13.6 15.4 100 0.0 N 19 28 10 15 1004.7 1004.8 7.4
21/05:00am 15.2 13.7 15.2 100 0.0 N 17 28 9 15 1004.3 1004.4 4.0
21/04:30am 14.9 13.6 14.7 99 0.1 N 15 22 8 12 1005.3 1005.4 2.4
21/04:00am 15.1 13.1 14.9 99 0.1 N 19 32 10 17 1005.2 1005.3 1.8
21/03:30am 14.8 13.8 14.6 99 0.1 N 13 24 7 13 1006.0 1006.1 1.0
21/03:00am 14.4 13.7 14.2 99 0.1 N 11 19 6 10 1006.4 1006.5 1.0
21/02:30am 14.3 13.1 14.1 99 0.1 N 13 19 7 10 1006.9 1007.0 1.0
21/02:00am 14.4 13.6 14.1 98 0.2 N 11 19 6 10 1007.7 1007.8 0.8
21/01:30am 14.7 13.6 14.4 98 0.2 N 13 19 7 10 1008.2 1008.3 0.6
21/01:00am 14.8 12.8 13.8 94 0.6 N 17 28 9 15 1008.7 1008.9 0.6
21/12:30am 14.6 13.3 13.6 94 0.6 N 13 24 7 13 1009.1 1009.2 0.6
21/12:00am 13.8 13.5 13.3 97 0.3 N 7 9 4 5 1009.5 1009.6 0.6
 
Date/Time
WST
Temp
°C
App
Temp
°C
Dew
Point
Rel
Hum
%
Delta-T
°C
Wind Press
QNH
hPa
Press
MSL
hPa
Rain
since 9 am
mm
Dir
 
Spd
km/h
Gust
km/h
Spd
kts
Gust
kts
20/11:30pm 13.4 13.1 12.8 96 0.3 N 6 11 3 6 1009.9 1010.0 0.6
20/11:00pm 13.8 12.9 12.7 93 0.6 N 9 15 5 8 1010.4 1010.5 0.6
20/10:30pm 14.4 12.9 13.1 92 0.7 N 13 24 7 13 1010.8 1010.9 0.6
20/10:00pm 14.1 13.6 13.8 98 0.2 N 9 15 5 8 1011.2 1011.3 0.6
20/09:30pm 13.8 13.2 13.5 98 0.2 N 9 19 5 10 1011.7 1011.8 0.6
20/09:00pm 13.9 13.0 13.6 98 0.2 N 11 15 6 8 1012.0 1012.1 0.6
20/08:30pm 13.6 12.9 13.3 98 0.2 N 9 15 5 8 1012.2 1012.3 0.6
20/08:00pm 13.4 12.7 13.1 98 0.2 N 9 13 5 7 1012.3 1012.4 0.6
20/07:30pm 13.3 12.4 12.5 95 0.4 N 9 13 5 7 1012.1 1012.2 0.6
20/07:00pm 13.8 13.6 13.0 95 0.4 N 6 11 3 6 1012.1 1012.2 0.6
20/06:30pm 13.4 12.9 12.1 92 0.7 N 6 9 3 5 1012.1 1012.2 0.6
20/06:00pm 14.2 12.8 11.0 81 1.7 N 9 13 5 7 1012.1 1012.2 0.6
20/05:30pm 15.2 13.3 10.6 74 2.4 N 11 17 6 9 1012.0 1012.1 0.6
20/05:00pm 16.0 13.2 9.9 67 3.2 NNW 15 24 8 13 1011.9 1012.0 0.6
20/04:30pm 16.1 14.3 12.1 77 2.2 N 13 24 7 13 1011.8 1011.9 0.6
20/04:00pm 16.9 15.7 12.8 77 2.3 N 11 19 6 10 1011.6 1011.7 0.6
20/03:30pm 16.6 14.6 12.8 78 2.1 N 15 19 8 10 1011.9 1012.0 0.6
20/03:00pm 16.5 15.5 12.3 76 2.3 NNW 9 22 5 12 1012.0 1012.1 0.6
20/02:30pm 16.6 15.9 13.1 80 2.0 NW 9 17 5 9 1012.1 1012.2 0.6
20/02:00pm 16.3 13.4 12.3 77 2.2 N 19 30 10 16 1012.3 1012.4 0.6
20/01:30pm 15.7 15.8 15.4 98 0.2 N 9 13 5 7 1012.6 1012.7 0.6
20/01:00pm 14.8 12.1 13.0 89 1.0 NNW 19 32 10 17 1013.2 1013.3 0.0
20/12:30pm 16.7 15.5 11.6 72 2.8 NNW 9 19 5 10 1013.0 1013.1 0.0
20/12:00pm 16.4 15.1 12.4 77 2.2 N 11 17 6 9 1013.5 1013.7 0.0
20/11:30am 15.7 15.5 14.6 93 0.6 N 9 13 5 7 1014.0 1014.2 0.0
20/11:00am 14.6 14.3 14.3 98 0.2 N 9 19 5 10 1014.4 1014.6 0.0
20/10:30am 13.4 12.7 13.2 99 0.1 N 9 15 5 8 1014.9 1015.0 0.0
20/10:00am 13.4 13.1 13.2 99 0.1 NNW 7 9 4 5 1015.0 1015.1 0.0
20/09:30am 12.8 12.9 12.8 100 0.0 N 4 6 2 3 1015.2 1015.3 0.0
20/09:00am 12.2 12.1 12.2 100 0.0 NNW 4 7 2 4 1015.3 1015.4 0.2
20/08:30am 11.2 10.8 11.2 100 0.0 NNW 4 7 2 4 1015.4 - 0.2
20/08:00am 10.3 10.4 10.3 100 0.0 CALM 0 0 0 0 1015.3 1015.4 0.2
20/07:30am 9.1 8.9 9.1 100 0.0 CALM 0 0 0 0 1015.1 - 0.2
20/07:00am 8.8 8.5 8.8 100 0.0 CALM 0 0 0 0 1014.8 1014.9 0.2
20/06:30am 8.5 8.2 8.5 100 0.0 CALM 0 0 0 0 1014.4 - 0.2
20/06:00am 9.2 9.0 9.2 100 0.0 CALM 0 0 0 0 1014.0 1014.2 0.2
20/05:30am 9.1 8.9 9.1 100 0.0 CALM 0 0 0 0 1014.1 - 0.2
20/05:00am 9.6 9.5 9.6 100 0.0 CALM 0 0 0 0 1014.5 1014.7 0.0
20/04:30am 9.5 9.4 9.5 100 0.0 CALM 0 0 0 0 1014.4 - 0.0
20/04:00am 9.6 9.5 9.6 100 0.0 CALM 0 0 0 0 1014.5 1014.7 0.0
20/03:30am 10.0 10.1 10.0 100 0.0 CALM 0 0 0 0 1014.6 - 0.0
20/03:00am 10.2 10.3 10.2 100 0.0 CALM 0 0 0 0 1015.0 1015.1 0.0
20/02:30am 10.2 10.3 10.2 100 0.0 CALM 0 0 0 0 1015.4 - 0.0
20/02:00am 10.6 10.8 10.6 100 0.0 CALM 0 0 0 0 1015.5 1015.6 0.0
20/01:30am 10.8 11.1 10.8 100 0.0 CALM 0 0 0 0 1015.6 - 0.0
20/01:00am 11.1 11.5 11.1 100 0.0 CALM 0 0 0 0 1015.6 1015.7 0.0
20/12:30am 11.4 11.8 11.4 100 0.0 CALM 0 0 0 0 1015.7 - 0.0
20/12:00am 11.5 12.0 11.5 100 0.0 CALM 0 0 0 0 1016.1 1016.2 0.0
 
Date/Time
WST
Temp
°C
App
Temp
°C
Dew
Point
Rel
Hum
%
Delta-T
°C
Wind Press
QNH
hPa
Press
MSL
hPa
Rain
since 9 am
mm
Dir
 
Spd
km/h
Gust
km/h
Spd
kts
Gust
kts
19/11:30pm 11.6 12.1 11.6 100 0.0 CALM 0 0 0 0 1016.1 - 0.0
19/11:00pm 11.3 11.7 11.3 100 0.0 CALM 0 0 0 0 1016.2 1016.3 0.0
19/10:30pm 11.5 12.0 11.5 100 0.0 CALM 0 0 0 0 1016.4 - 0.0
19/10:00pm 10.7 10.6 10.7 100 0.0 N 2 6 1 3 1016.5 1016.6 0.0

Other Formats:

Comma delimited format used in spreadsheet applications
http://www.bom.gov.au/fwo/IDW60801/IDW60801.95632.axf

JavaScript Object Notation format (JSON) in row-major order
http://www.bom.gov.au/fwo/IDW60801/IDW60801.95632.json